sensor_id;sensor_type;location;lat;lon;timestamp;P1;durP1;ratioP1;P2;durP2;ratioP2
48651;SDS011;34442;52.362;-1.302;2023-01-25T00:01:20;7.47;;;3.67;;
48651;SDS011;34442;52.362;-1.302;2023-01-25T00:03:46;7.82;;;3.47;;
48651;SDS011;34442;52.362;-1.302;2023-01-25T00:06:11;6.13;;;2.90;;
48651;SDS011;34442;52.362;-1.302;2023-01-25T00:08:36;8.75;;;3.95;;
48651;SDS011;34442;52.362;-1.302;2023-01-25T00:11:02;8.68;;;3.30;;
48651;SDS011;34442;52.362;-1.302;2023-01-25T00:13:28;6.65;;;3.50;;
48651;SDS011;34442;52.362;-1.302;2023-01-25T00:15:59;8.95;;;3.67;;
48651;SDS011;34442;52.362;-1.302;2023-01-25T00:18:29;7.60;;;3.38;;
48651;SDS011;34442;52.362;-1.302;2023-01-25T00:20:55;8.98;;;3.65;;
48651;SDS011;34442;52.362;-1.302;2023-01-25T00:23:20;9.70;;;5.28;;
48651;SDS011;34442;52.362;-1.302;2023-01-25T00:25:46;8.60;;;3.90;;
48651;SDS011;34442;52.362;-1.302;2023-01-25T00:28:11;10.07;;;4.07;;
48651;SDS011;34442;52.362;-1.302;2023-01-25T00:30:39;8.65;;;3.50;;
48651;SDS011;34442;52.362;-1.302;2023-01-25T00:33:06;8.52;;;3.80;;
48651;SDS011;34442;52.362;-1.302;2023-01-25T00:38:57;8.35;;;3.63;;
48651;SDS011;34442;52.362;-1.302;2023-01-25T00:41:23;6.97;;;2.60;;
48651;SDS011;34442;52.362;-1.302;2023-01-25T00:43:48;6.78;;;2.72;;
48651;SDS011;34442;52.362;-1.302;2023-01-25T00:46:14;10.38;;;3.88;;
48651;SDS011;34442;52.362;-1.302;2023-01-25T00:48:41;6.45;;;3.10;;
48651;SDS011;34442;52.362;-1.302;2023-01-25T00:51:06;8.30;;;3.92;;
48651;SDS011;34442;52.362;-1.302;2023-01-25T00:53:32;6.95;;;3.33;;
48651;SDS011;34442;52.362;-1.302;2023-01-25T00:55:58;8.23;;;3.75;;
48651;SDS011;34442;52.362;-1.302;2023-01-25T00:58:24;7.90;;;3.45;;
48651;SDS011;34442;52.362;-1.302;2023-01-25T01:00:53;7.60;;;3.22;;
48651;SDS011;34442;52.362;-1.302;2023-01-25T01:03:20;5.63;;;2.33;;
48651;SDS011;34442;52.362;-1.302;2023-01-25T01:05:45;6.65;;;2.97;;
48651;SDS011;34442;52.362;-1.302;2023-01-25T01:08:14;6.55;;;2.47;;
48651;SDS011;34442;52.362;-1.302;2023-01-25T01:10:40;7.70;;;2.72;;
48651;SDS011;34442;52.362;-1.302;2023-01-25T01:13:06;6.60;;;3.08;;
48651;SDS011;34442;52.362;-1.302;2023-01-25T01:15:35;5.88;;;2.80;;
48651;SDS011;34442;52.362;-1.302;2023-01-25T01:18:01;6.45;;;3.28;;
48651;SDS011;34442;52.362;-1.302;2023-01-25T01:20:26;6.75;;;2.60;;
48651;SDS011;34442;52.362;-1.302;2023-01-25T01:22:52;7.22;;;3.05;;
48651;SDS011;34442;52.362;-1.302;2023-01-25T01:25:19;8.10;;;3.45;;
48651;SDS011;34442;52.362;-1.302;2023-01-25T01:27:45;6.53;;;3.00;;
48651;SDS011;34442;52.362;-1.302;2023-01-25T01:30:10;6.50;;;2.85;;
48651;SDS011;34442;52.362;-1.302;2023-01-25T01:32:36;7.63;;;3.10;;
48651;SDS011;34442;52.362;-1.302;2023-01-25T01:35:02;5.65;;;2.50;;
48651;SDS011;34442;52.362;-1.302;2023-01-25T01:37:28;6.57;;;2.25;;
48651;SDS011;34442;52.362;-1.302;2023-01-25T01:39:53;4.78;;;2.42;;
48651;SDS011;34442;52.362;-1.302;2023-01-25T01:42:19;6.32;;;2.50;;
48651;SDS011;34442;52.362;-1.302;2023-01-25T01:44:46;6.97;;;2.60;;
48651;SDS011;34442;52.362;-1.302;2023-01-25T01:47:17;7.45;;;2.40;;
48651;SDS011;34442;52.362;-1.302;2023-01-25T01:50:00;5.82;;;2.50;;
48651;SDS011;34442;52.362;-1.302;2023-01-25T01:52:30;6.32;;;2.58;;
48651;SDS011;34442;52.362;-1.302;2023-01-25T01:55:06;7.40;;;2.97;;
48651;SDS011;34442;52.362;-1.302;2023-01-25T01:57:56;6.30;;;2.55;;
48651;SDS011;34442;52.362;-1.302;2023-01-25T02:00:24;6.35;;;2.72;;
48651;SDS011;34442;52.362;-1.302;2023-01-25T02:02:53;7.45;;;2.53;;
48651;SDS011;34442;52.362;-1.302;2023-01-25T02:05:27;6.05;;;2.65;;
48651;SDS011;34442;52.362;-1.302;2023-01-25T02:07:54;6.55;;;2.42;;
48651;SDS011;34442;52.362;-1.302;2023-01-25T02:10:21;4.38;;;1.85;;
48651;SDS011;34442;52.362;-1.302;2023-01-25T02:12:50;6.30;;;2.55;;
48651;SDS011;34442;52.362;-1.302;2023-01-25T02:15:20;5.80;;;2.20;;
48651;SDS011;34442;52.362;-1.302;2023-01-25T02:17:45;5.50;;;2.20;;
48651;SDS011;34442;52.362;-1.302;2023-01-25T02:25:39;5.30;;;2.08;;
48651;SDS011;34442;52.362;-1.302;2023-01-25T02:28:25;6.07;;;2.70;;
48651;SDS011;34442;52.362;-1.302;2023-01-25T02:30:55;4.95;;;1.92;;
48651;SDS011;34442;52.362;-1.302;2023-01-25T02:33:24;7.35;;;2.63;;
48651;SDS011;34442;52.362;-1.302;2023-01-25T02:38:42;8.45;;;3.28;;
48651;SDS011;34442;52.362;-1.302;2023-01-25T02:41:16;5.95;;;2.45;;
48651;SDS011;34442;52.362;-1.302;2023-01-25T02:43:48;5.57;;;2.10;;
48651;SDS011;34442;52.362;-1.302;2023-01-25T02:48:52;6.82;;;2.45;;
48651;SDS011;34442;52.362;-1.302;2023-01-25T02:51:19;8.15;;;2.65;;
48651;SDS011;34442;52.362;-1.302;2023-01-25T02:53:45;7.07;;;2.70;;
48651;SDS011;34442;52.362;-1.302;2023-01-25T02:56:10;5.35;;;2.67;;
48651;SDS011;34442;52.362;-1.302;2023-01-25T02:58:36;5.10;;;2.53;;
48651;SDS011;34442;52.362;-1.302;2023-01-25T03:01:01;4.93;;;2.10;;
48651;SDS011;34442;52.362;-1.302;2023-01-25T03:03:27;4.95;;;2.30;;
48651;SDS011;34442;52.362;-1.302;2023-01-25T03:05:52;6.03;;;2.38;;
48651;SDS011;34442;52.362;-1.302;2023-01-25T03:08:18;5.80;;;2.08;;
48651;SDS011;34442;52.362;-1.302;2023-01-25T03:10:43;4.50;;;2.38;;
48651;SDS011;34442;52.362;-1.302;2023-01-25T03:13:09;5.75;;;2.22;;
48651;SDS011;34442;52.362;-1.302;2023-01-25T03:15:35;3.92;;;2.00;;
48651;SDS011;34442;52.362;-1.302;2023-01-25T03:18:00;5.78;;;2.15;;
48651;SDS011;34442;52.362;-1.302;2023-01-25T03:20:26;5.78;;;2.17;;
48651;SDS011;34442;52.362;-1.302;2023-01-25T03:22:51;5.15;;;2.10;;
48651;SDS011;34442;52.362;-1.302;2023-01-25T03:25:17;3.50;;;1.60;;
48651;SDS011;34442;52.362;-1.302;2023-01-25T03:27:42;5.05;;;2.08;;
48651;SDS011;34442;52.362;-1.302;2023-01-25T03:30:09;4.38;;;2.00;;
48651;SDS011;34442;52.362;-1.302;2023-01-25T03:32:35;5.05;;;2.25;;
48651;SDS011;34442;52.362;-1.302;2023-01-25T03:35:02;5.20;;;2.35;;
48651;SDS011;34442;52.362;-1.302;2023-01-25T03:37:27;4.65;;;2.05;;
48651;SDS011;34442;52.362;-1.302;2023-01-25T03:39:55;4.20;;;1.83;;
48651;SDS011;34442;52.362;-1.302;2023-01-25T03:42:21;5.40;;;2.15;;
48651;SDS011;34442;52.362;-1.302;2023-01-25T03:44:47;6.38;;;2.67;;
48651;SDS011;34442;52.362;-1.302;2023-01-25T03:47:13;5.22;;;2.08;;
48651;SDS011;34442;52.362;-1.302;2023-01-25T03:49:38;4.53;;;1.90;;
48651;SDS011;34442;52.362;-1.302;2023-01-25T03:52:04;6.20;;;2.22;;
48651;SDS011;34442;52.362;-1.302;2023-01-25T03:54:30;5.20;;;2.42;;
48651;SDS011;34442;52.362;-1.302;2023-01-25T03:56:55;3.72;;;1.63;;
48651;SDS011;34442;52.362;-1.302;2023-01-25T03:59:21;3.88;;;1.45;;
48651;SDS011;34442;52.362;-1.302;2023-01-25T04:01:46;4.35;;;1.60;;
48651;SDS011;34442;52.362;-1.302;2023-01-25T04:04:12;4.00;;;1.50;;
48651;SDS011;34442;52.362;-1.302;2023-01-25T04:06:37;4.70;;;1.60;;
48651;SDS011;34442;52.362;-1.302;2023-01-25T04:09:03;4.68;;;1.67;;
48651;SDS011;34442;52.362;-1.302;2023-01-25T04:11:29;2.75;;;1.50;;
48651;SDS011;34442;52.362;-1.302;2023-01-25T04:13:55;3.40;;;1.67;;
48651;SDS011;34442;52.362;-1.302;2023-01-25T04:16:20;3.55;;;1.60;;
48651;SDS011;34442;52.362;-1.302;2023-01-25T04:18:46;2.78;;;1.50;;
48651;SDS011;34442;52.362;-1.302;2023-01-25T04:21:11;3.58;;;1.52;;
48651;SDS011;34442;52.362;-1.302;2023-01-25T04:23:37;2.65;;;1.30;;
48651;SDS011;34442;52.362;-1.302;2023-01-25T04:26:03;4.13;;;1.88;;
48651;SDS011;34442;52.362;-1.302;2023-01-25T04:28:31;3.90;;;1.65;;
48651;SDS011;34442;52.362;-1.302;2023-01-25T04:30:57;4.32;;;1.48;;
48651;SDS011;34442;52.362;-1.302;2023-01-25T04:33:23;3.58;;;1.48;;
48651;SDS011;34442;52.362;-1.302;2023-01-25T04:35:49;2.72;;;1.30;;
48651;SDS011;34442;52.362;-1.302;2023-01-25T04:38:15;3.30;;;1.52;;
48651;SDS011;34442;52.362;-1.302;2023-01-25T04:40:41;5.68;;;2.13;;
48651;SDS011;34442;52.362;-1.302;2023-01-25T04:43:07;2.58;;;1.20;;
48651;SDS011;34442;52.362;-1.302;2023-01-25T04:45:33;4.10;;;1.73;;
48651;SDS011;34442;52.362;-1.302;2023-01-25T04:48:03;3.40;;;1.80;;
48651;SDS011;34442;52.362;-1.302;2023-01-25T04:50:33;3.53;;;1.45;;
48651;SDS011;34442;52.362;-1.302;2023-01-25T04:52:59;5.22;;;1.70;;
48651;SDS011;34442;52.362;-1.302;2023-01-25T04:55:25;3.78;;;1.60;;
48651;SDS011;34442;52.362;-1.302;2023-01-25T04:57:50;2.33;;;1.30;;
48651;SDS011;34442;52.362;-1.302;2023-01-25T05:00:16;4.93;;;1.60;;
48651;SDS011;34442;52.362;-1.302;2023-01-25T05:02:42;3.95;;;1.60;;
48651;SDS011;34442;52.362;-1.302;2023-01-25T05:05:08;2.95;;;1.42;;
48651;SDS011;34442;52.362;-1.302;2023-01-25T05:07:33;3.42;;;1.63;;
48651;SDS011;34442;52.362;-1.302;2023-01-25T05:09:59;4.38;;;1.55;;
48651;SDS011;34442;52.362;-1.302;2023-01-25T05:12:24;3.78;;;1.80;;
48651;SDS011;34442;52.362;-1.302;2023-01-25T05:14:50;4.72;;;2.25;;
48651;SDS011;34442;52.362;-1.302;2023-01-25T05:17:15;3.03;;;1.40;;
48651;SDS011;34442;52.362;-1.302;2023-01-25T05:19:41;3.95;;;2.08;;
48651;SDS011;34442;52.362;-1.302;2023-01-25T05:22:06;3.40;;;1.48;;
48651;SDS011;34442;52.362;-1.302;2023-01-25T05:24:36;3.20;;;1.30;;
48651;SDS011;34442;52.362;-1.302;2023-01-25T05:27:05;2.63;;;1.23;;
48651;SDS011;34442;52.362;-1.302;2023-01-25T05:32:00;3.75;;;1.40;;
48651;SDS011;34442;52.362;-1.302;2023-01-25T05:34:35;2.28;;;1.13;;
48651;SDS011;34442;52.362;-1.302;2023-01-25T05:37:01;2.33;;;1.25;;
48651;SDS011;34442;52.362;-1.302;2023-01-25T05:39:28;3.85;;;1.42;;
48651;SDS011;34442;52.362;-1.302;2023-01-25T05:41:54;3.47;;;1.63;;
48651;SDS011;34442;52.362;-1.302;2023-01-25T05:44:19;3.53;;;1.45;;
48651;SDS011;34442;52.362;-1.302;2023-01-25T05:46:45;5.32;;;2.10;;
48651;SDS011;34442;52.362;-1.302;2023-01-25T05:49:11;3.75;;;1.38;;
48651;SDS011;34442;52.362;-1.302;2023-01-25T05:51:36;3.55;;;1.35;;
48651;SDS011;34442;52.362;-1.302;2023-01-25T05:54:03;2.45;;;1.17;;
48651;SDS011;34442;52.362;-1.302;2023-01-25T05:56:29;2.78;;;1.20;;
48651;SDS011;34442;52.362;-1.302;2023-01-25T05:58:56;2.35;;;1.25;;
48651;SDS011;34442;52.362;-1.302;2023-01-25T06:01:23;1.73;;;1.10;;
48651;SDS011;34442;52.362;-1.302;2023-01-25T06:03:48;1.98;;;1.33;;
48651;SDS011;34442;52.362;-1.302;2023-01-25T06:06:14;4.15;;;1.52;;
48651;SDS011;34442;52.362;-1.302;2023-01-25T06:08:40;2.95;;;1.38;;
48651;SDS011;34442;52.362;-1.302;2023-01-25T06:11:08;3.88;;;1.70;;
48651;SDS011;34442;52.362;-1.302;2023-01-25T06:13:35;3.53;;;1.52;;
48651;SDS011;34442;52.362;-1.302;2023-01-25T06:16:01;2.97;;;1.42;;
48651;SDS011;34442;52.362;-1.302;2023-01-25T06:18:28;3.22;;;1.58;;
48651;SDS011;34442;52.362;-1.302;2023-01-25T06:20:58;2.60;;;1.25;;
48651;SDS011;34442;52.362;-1.302;2023-01-25T06:23:24;3.70;;;1.40;;
48651;SDS011;34442;52.362;-1.302;2023-01-25T06:25:50;2.83;;;1.20;;
48651;SDS011;34442;52.362;-1.302;2023-01-25T06:28:17;3.28;;;1.50;;
48651;SDS011;34442;52.362;-1.302;2023-01-25T06:30:43;3.15;;;1.40;;
48651;SDS011;34442;52.362;-1.302;2023-01-25T06:33:08;4.90;;;1.70;;
48651;SDS011;34442;52.362;-1.302;2023-01-25T06:35:34;3.13;;;1.42;;
48651;SDS011;34442;52.362;-1.302;2023-01-25T06:38:00;3.30;;;1.65;;
48651;SDS011;34442;52.362;-1.302;2023-01-25T06:40:26;3.08;;;1.38;;
48651;SDS011;34442;52.362;-1.302;2023-01-25T06:42:52;3.08;;;1.58;;
48651;SDS011;34442;52.362;-1.302;2023-01-25T06:45:18;2.47;;;1.20;;
48651;SDS011;34442;52.362;-1.302;2023-01-25T06:47:44;2.92;;;1.48;;
48651;SDS011;34442;52.362;-1.302;2023-01-25T06:50:13;5.95;;;1.88;;
48651;SDS011;34442;52.362;-1.302;2023-01-25T06:52:38;5.15;;;2.22;;
48651;SDS011;34442;52.362;-1.302;2023-01-25T06:55:04;3.78;;;1.67;;
48651;SDS011;34442;52.362;-1.302;2023-01-25T06:57:32;3.33;;;1.50;;
48651;SDS011;34442;52.362;-1.302;2023-01-25T06:59:59;4.03;;;2.08;;
48651;SDS011;34442;52.362;-1.302;2023-01-25T07:02:25;3.55;;;1.67;;
48651;SDS011;34442;52.362;-1.302;2023-01-25T07:04:50;3.58;;;1.58;;
48651;SDS011;34442;52.362;-1.302;2023-01-25T07:07:16;2.85;;;1.50;;
48651;SDS011;34442;52.362;-1.302;2023-01-25T07:09:41;4.72;;;1.95;;
48651;SDS011;34442;52.362;-1.302;2023-01-25T07:12:09;3.08;;;1.40;;
48651;SDS011;34442;52.362;-1.302;2023-01-25T07:14:37;4.22;;;1.73;;
48651;SDS011;34442;52.362;-1.302;2023-01-25T07:17:03;4.35;;;1.65;;
48651;SDS011;34442;52.362;-1.302;2023-01-25T07:19:28;4.53;;;1.90;;
48651;SDS011;34442;52.362;-1.302;2023-01-25T07:21:54;3.92;;;2.00;;
48651;SDS011;34442;52.362;-1.302;2023-01-25T07:24:19;3.97;;;2.30;;
48651;SDS011;34442;52.362;-1.302;2023-01-25T07:26:45;6.03;;;2.58;;
48651;SDS011;34442;52.362;-1.302;2023-01-25T07:29:12;4.60;;;2.22;;
48651;SDS011;34442;52.362;-1.302;2023-01-25T07:31:39;5.75;;;2.50;;
48651;SDS011;34442;52.362;-1.302;2023-01-25T07:34:05;3.35;;;1.80;;
48651;SDS011;34442;52.362;-1.302;2023-01-25T07:36:34;4.40;;;1.60;;
48651;SDS011;34442;52.362;-1.302;2023-01-25T07:38:59;2.97;;;1.50;;
48651;SDS011;34442;52.362;-1.302;2023-01-25T07:41:25;4.43;;;2.00;;
48651;SDS011;34442;52.362;-1.302;2023-01-25T07:43:51;2.90;;;1.52;;
48651;SDS011;34442;52.362;-1.302;2023-01-25T07:46:17;6.07;;;1.90;;
48651;SDS011;34442;52.362;-1.302;2023-01-25T07:48:47;2.97;;;1.42;;
48651;SDS011;34442;52.362;-1.302;2023-01-25T07:51:14;4.35;;;1.75;;
48651;SDS011;34442;52.362;-1.302;2023-01-25T07:53:51;5.60;;;2.45;;
48651;SDS011;34442;52.362;-1.302;2023-01-25T07:56:19;5.07;;;1.92;;
48651;SDS011;34442;52.362;-1.302;2023-01-25T07:58:46;3.92;;;1.95;;
48651;SDS011;34442;52.362;-1.302;2023-01-25T08:01:16;4.25;;;1.60;;
48651;SDS011;34442;52.362;-1.302;2023-01-25T08:03:43;3.65;;;1.50;;
48651;SDS011;34442;52.362;-1.302;2023-01-25T08:06:12;4.88;;;1.88;;
48651;SDS011;34442;52.362;-1.302;2023-01-25T08:08:39;4.57;;;1.60;;
48651;SDS011;34442;52.362;-1.302;2023-01-25T08:11:09;3.28;;;1.67;;
48651;SDS011;34442;52.362;-1.302;2023-01-25T08:13:40;4.28;;;1.85;;
48651;SDS011;34442;52.362;-1.302;2023-01-25T08:16:10;3.55;;;1.60;;
48651;SDS011;34442;52.362;-1.302;2023-01-25T08:18:39;4.70;;;2.08;;
48651;SDS011;34442;52.362;-1.302;2023-01-25T08:21:05;4.15;;;1.92;;
48651;SDS011;34442;52.362;-1.302;2023-01-25T08:23:31;4.00;;;1.67;;
48651;SDS011;34442;52.362;-1.302;2023-01-25T08:26:06;3.60;;;1.70;;
48651;SDS011;34442;52.362;-1.302;2023-01-25T08:28:33;4.63;;;1.92;;
48651;SDS011;34442;52.362;-1.302;2023-01-25T08:31:03;5.03;;;2.00;;
48651;SDS011;34442;52.362;-1.302;2023-01-25T08:33:29;4.95;;;1.70;;
48651;SDS011;34442;52.362;-1.302;2023-01-25T08:35:54;3.83;;;1.80;;
48651;SDS011;34442;52.362;-1.302;2023-01-25T08:38:21;5.30;;;2.13;;
48651;SDS011;34442;52.362;-1.302;2023-01-25T08:40:46;4.68;;;1.95;;
48651;SDS011;34442;52.362;-1.302;2023-01-25T08:43:11;4.18;;;1.52;;
48651;SDS011;34442;52.362;-1.302;2023-01-25T08:45:37;3.40;;;1.55;;
48651;SDS011;34442;52.362;-1.302;2023-01-25T08:48:03;4.55;;;1.60;;
48651;SDS011;34442;52.362;-1.302;2023-01-25T08:50:28;3.33;;;1.42;;
48651;SDS011;34442;52.362;-1.302;2023-01-25T08:52:54;3.65;;;1.55;;
48651;SDS011;34442;52.362;-1.302;2023-01-25T08:55:19;4.47;;;2.00;;
48651;SDS011;34442;52.362;-1.302;2023-01-25T08:57:45;4.35;;;1.60;;
48651;SDS011;34442;52.362;-1.302;2023-01-25T09:00:11;5.68;;;1.60;;
48651;SDS011;34442;52.362;-1.302;2023-01-25T09:02:37;3.35;;;1.35;;
48651;SDS011;34442;52.362;-1.302;2023-01-25T09:05:02;3.13;;;1.52;;
48651;SDS011;34442;52.362;-1.302;2023-01-25T09:07:28;4.07;;;1.75;;
48651;SDS011;34442;52.362;-1.302;2023-01-25T09:09:56;2.83;;;1.60;;
48651;SDS011;34442;52.362;-1.302;2023-01-25T09:12:22;4.25;;;1.80;;
48651;SDS011;34442;52.362;-1.302;2023-01-25T09:14:47;5.18;;;2.28;;
48651;SDS011;34442;52.362;-1.302;2023-01-25T09:17:13;3.42;;;1.60;;
48651;SDS011;34442;52.362;-1.302;2023-01-25T09:19:38;3.97;;;1.92;;
48651;SDS011;34442;52.362;-1.302;2023-01-25T09:22:06;5.95;;;2.50;;
48651;SDS011;34442;52.362;-1.302;2023-01-25T09:24:31;5.55;;;2.22;;
48651;SDS011;34442;52.362;-1.302;2023-01-25T09:26:58;5.65;;;2.40;;
48651;SDS011;34442;52.362;-1.302;2023-01-25T09:29:24;5.18;;;2.42;;
48651;SDS011;34442;52.362;-1.302;2023-01-25T09:31:50;6.93;;;2.63;;
48651;SDS011;34442;52.362;-1.302;2023-01-25T09:34:16;2.95;;;1.58;;
48651;SDS011;34442;52.362;-1.302;2023-01-25T09:36:42;3.95;;;1.88;;
48651;SDS011;34442;52.362;-1.302;2023-01-25T09:39:08;4.20;;;1.80;;
48651;SDS011;34442;52.362;-1.302;2023-01-25T09:47:28;3.90;;;1.88;;
48651;SDS011;34442;52.362;-1.302;2023-01-25T09:55:57;3.47;;;1.95;;
48651;SDS011;34442;52.362;-1.302;2023-01-25T09:58:28;3.97;;;1.98;;
48651;SDS011;34442;52.362;-1.302;2023-01-25T10:04:01;3.10;;;1.70;;
48651;SDS011;34442;52.362;-1.302;2023-01-25T10:06:35;3.28;;;1.58;;
48651;SDS011;34442;52.362;-1.302;2023-01-25T10:09:16;3.28;;;1.70;;
48651;SDS011;34442;52.362;-1.302;2023-01-25T10:11:44;4.28;;;1.90;;
48651;SDS011;34442;52.362;-1.302;2023-01-25T10:14:15;4.03;;;1.60;;
48651;SDS011;34442;52.362;-1.302;2023-01-25T10:19:22;4.05;;;1.63;;
48651;SDS011;34442;52.362;-1.302;2023-01-25T10:21:59;3.80;;;1.65;;
48651;SDS011;34442;52.362;-1.302;2023-01-25T10:27:27;3.83;;;1.70;;
48651;SDS011;34442;52.362;-1.302;2023-01-25T10:30:29;6.38;;;2.45;;
48651;SDS011;34442;52.362;-1.302;2023-01-25T10:33:00;4.53;;;2.17;;
48651;SDS011;34442;52.362;-1.302;2023-01-25T10:35:35;4.72;;;1.95;;
48651;SDS011;34442;52.362;-1.302;2023-01-25T10:38:08;4.50;;;1.80;;
48651;SDS011;34442;52.362;-1.302;2023-01-25T10:40:40;5.47;;;2.10;;
48651;SDS011;34442;52.362;-1.302;2023-01-25T10:43:17;4.28;;;1.80;;
48651;SDS011;34442;52.362;-1.302;2023-01-25T10:48:12;5.38;;;2.13;;
48651;SDS011;34442;52.362;-1.302;2023-01-25T10:50:44;5.57;;;2.03;;
48651;SDS011;34442;52.362;-1.302;2023-01-25T10:53:30;4.72;;;2.13;;
48651;SDS011;34442;52.362;-1.302;2023-01-25T10:58:36;5.40;;;2.20;;
48651;SDS011;34442;52.362;-1.302;2023-01-25T11:01:07;5.95;;;2.75;;
48651;SDS011;34442;52.362;-1.302;2023-01-25T11:03:37;5.20;;;2.45;;
48651;SDS011;34442;52.362;-1.302;2023-01-25T11:06:05;6.32;;;2.55;;
48651;SDS011;34442;52.362;-1.302;2023-01-25T11:08:33;5.38;;;2.42;;
48651;SDS011;34442;52.362;-1.302;2023-01-25T11:11:11;5.10;;;2.63;;
48651;SDS011;34442;52.362;-1.302;2023-01-25T11:13:39;5.80;;;2.28;;
48651;SDS011;34442;52.362;-1.302;2023-01-25T11:18:47;6.65;;;3.42;;
48651;SDS011;34442;52.362;-1.302;2023-01-25T11:21:15;5.30;;;2.40;;
48651;SDS011;34442;52.362;-1.302;2023-01-25T11:23:59;5.90;;;2.40;;
48651;SDS011;34442;52.362;-1.302;2023-01-25T11:26:27;6.22;;;3.53;;
48651;SDS011;34442;52.362;-1.302;2023-01-25T11:29:07;5.30;;;2.45;;
48651;SDS011;34442;52.362;-1.302;2023-01-25T11:31:35;6.05;;;2.90;;
48651;SDS011;34442;52.362;-1.302;2023-01-25T11:34:01;5.20;;;2.47;;
48651;SDS011;34442;52.362;-1.302;2023-01-25T11:36:41;5.90;;;2.42;;
48651;SDS011;34442;52.362;-1.302;2023-01-25T11:45:02;5.13;;;2.75;;
48651;SDS011;34442;52.362;-1.302;2023-01-25T12:01:46;5.90;;;2.90;;
48651;SDS011;34442;52.362;-1.302;2023-01-25T12:07:01;6.32;;;3.13;;
48651;SDS011;34442;52.362;-1.302;2023-01-25T12:14:45;5.03;;;2.60;;
48651;SDS011;34442;52.362;-1.302;2023-01-25T12:20:16;4.53;;;2.45;;
48651;SDS011;34442;52.362;-1.302;2023-01-25T12:25:49;4.38;;;2.17;;
48651;SDS011;34442;52.362;-1.302;2023-01-25T12:28:37;5.35;;;2.35;;
48651;SDS011;34442;52.362;-1.302;2023-01-25T12:33:59;4.13;;;2.03;;
48651;SDS011;34442;52.362;-1.302;2023-01-25T12:36:42;3.60;;;1.85;;
48651;SDS011;34442;52.362;-1.302;2023-01-25T12:39:16;4.75;;;2.10;;
48651;SDS011;34442;52.362;-1.302;2023-01-25T12:42:14;4.03;;;1.80;;
48651;SDS011;34442;52.362;-1.302;2023-01-25T12:44:48;4.43;;;2.20;;
48651;SDS011;34442;52.362;-1.302;2023-01-25T12:47:18;4.10;;;1.83;;
48651;SDS011;34442;52.362;-1.302;2023-01-25T12:49:50;4.60;;;1.83;;
48651;SDS011;34442;52.362;-1.302;2023-01-25T12:52:33;4.85;;;2.55;;
48651;SDS011;34442;52.362;-1.302;2023-01-25T12:55:04;4.57;;;2.22;;
48651;SDS011;34442;52.362;-1.302;2023-01-25T13:11:40;7.13;;;2.92;;
48651;SDS011;34442;52.362;-1.302;2023-01-25T13:14:17;5.82;;;3.05;;
48651;SDS011;34442;52.362;-1.302;2023-01-25T13:16:51;4.18;;;2.38;;
48651;SDS011;34442;52.362;-1.302;2023-01-25T13:21:47;5.80;;;2.22;;
48651;SDS011;34442;52.362;-1.302;2023-01-25T13:24:16;4.03;;;1.90;;
48651;SDS011;34442;52.362;-1.302;2023-01-25T13:32:00;3.97;;;1.98;;
48651;SDS011;34442;52.362;-1.302;2023-01-25T13:39:50;6.47;;;2.80;;
48651;SDS011;34442;52.362;-1.302;2023-01-25T13:42:19;4.25;;;2.13;;
48651;SDS011;34442;52.362;-1.302;2023-01-25T13:44:46;4.25;;;1.98;;
48651;SDS011;34442;52.362;-1.302;2023-01-25T13:47:27;5.13;;;2.22;;
48651;SDS011;34442;52.362;-1.302;2023-01-25T13:49:59;4.88;;;2.58;;
48651;SDS011;34442;52.362;-1.302;2023-01-25T13:52:32;4.53;;;2.08;;
48651;SDS011;34442;52.362;-1.302;2023-01-25T13:54:58;4.97;;;2.22;;
48651;SDS011;34442;52.362;-1.302;2023-01-25T13:57:25;4.20;;;2.35;;
48651;SDS011;34442;52.362;-1.302;2023-01-25T14:00:00;4.82;;;2.53;;
48651;SDS011;34442;52.362;-1.302;2023-01-25T14:02:28;4.30;;;1.73;;
48651;SDS011;34442;52.362;-1.302;2023-01-25T14:04:54;4.35;;;2.20;;
48651;SDS011;34442;52.362;-1.302;2023-01-25T14:07:21;4.07;;;2.25;;
48651;SDS011;34442;52.362;-1.302;2023-01-25T14:09:53;4.00;;;2.30;;
48651;SDS011;34442;52.362;-1.302;2023-01-25T14:15:19;6.15;;;2.97;;
48651;SDS011;34442;52.362;-1.302;2023-01-25T14:20:40;6.47;;;3.13;;
48651;SDS011;34442;52.362;-1.302;2023-01-25T14:23:26;5.53;;;2.83;;
48651;SDS011;34442;52.362;-1.302;2023-01-25T14:25:53;5.93;;;2.80;;
48651;SDS011;34442;52.362;-1.302;2023-01-25T14:28:22;8.85;;;3.75;;
48651;SDS011;34442;52.362;-1.302;2023-01-25T14:30:55;6.15;;;3.65;;
48651;SDS011;34442;52.362;-1.302;2023-01-25T14:33:29;6.00;;;2.58;;
48651;SDS011;34442;52.362;-1.302;2023-01-25T14:36:11;5.90;;;3.05;;
48651;SDS011;34442;52.362;-1.302;2023-01-25T14:38:39;7.40;;;3.38;;
48651;SDS011;34442;52.362;-1.302;2023-01-25T14:41:13;7.47;;;3.08;;
48651;SDS011;34442;52.362;-1.302;2023-01-25T14:43:52;5.70;;;3.20;;
48651;SDS011;34442;52.362;-1.302;2023-01-25T14:46:29;8.15;;;4.13;;
48651;SDS011;34442;52.362;-1.302;2023-01-25T14:51:40;5.43;;;3.20;;
48651;SDS011;34442;52.362;-1.302;2023-01-25T14:54:14;5.20;;;2.40;;
48651;SDS011;34442;52.362;-1.302;2023-01-25T14:57:34;5.63;;;2.38;;
48651;SDS011;34442;52.362;-1.302;2023-01-25T14:59:52;4.45;;;2.13;;
48651;SDS011;34442;52.362;-1.302;2023-01-25T15:04:56;4.80;;;2.40;;
48651;SDS011;34442;52.362;-1.302;2023-01-25T15:07:34;3.63;;;2.20;;
48651;SDS011;34442;52.362;-1.302;2023-01-25T15:15:36;4.53;;;2.78;;
48651;SDS011;34442;52.362;-1.302;2023-01-25T15:21:16;6.22;;;3.38;;
48651;SDS011;34442;52.362;-1.302;2023-01-25T15:23:47;5.78;;;2.75;;
48651;SDS011;34442;52.362;-1.302;2023-01-25T15:26:20;5.55;;;2.45;;
48651;SDS011;34442;52.362;-1.302;2023-01-25T15:28:47;6.20;;;2.47;;
48651;SDS011;34442;52.362;-1.302;2023-01-25T15:31:17;5.47;;;2.70;;
48651;SDS011;34442;52.362;-1.302;2023-01-25T15:33:49;4.35;;;2.00;;
48651;SDS011;34442;52.362;-1.302;2023-01-25T15:36:14;6.00;;;2.53;;
48651;SDS011;34442;52.362;-1.302;2023-01-25T15:38:42;5.28;;;2.38;;
48651;SDS011;34442;52.362;-1.302;2023-01-25T15:41:07;4.97;;;2.33;;
48651;SDS011;34442;52.362;-1.302;2023-01-25T15:43:34;7.88;;;2.65;;
48651;SDS011;34442;52.362;-1.302;2023-01-25T15:45:59;4.63;;;2.33;;
48651;SDS011;34442;52.362;-1.302;2023-01-25T15:48:30;6.05;;;2.97;;
48651;SDS011;34442;52.362;-1.302;2023-01-25T15:51:00;6.13;;;3.05;;
48651;SDS011;34442;52.362;-1.302;2023-01-25T15:53:25;9.98;;;4.18;;
48651;SDS011;34442;52.362;-1.302;2023-01-25T15:55:53;7.90;;;3.70;;
48651;SDS011;34442;52.362;-1.302;2023-01-25T15:58:23;7.35;;;3.38;;
48651;SDS011;34442;52.362;-1.302;2023-01-25T16:00:51;8.52;;;3.97;;
48651;SDS011;34442;52.362;-1.302;2023-01-25T16:03:16;5.78;;;3.22;;
48651;SDS011;34442;52.362;-1.302;2023-01-25T16:05:45;6.28;;;2.50;;
48651;SDS011;34442;52.362;-1.302;2023-01-25T16:08:16;6.22;;;3.33;;
48651;SDS011;34442;52.362;-1.302;2023-01-25T16:10:43;5.65;;;2.67;;
48651;SDS011;34442;52.362;-1.302;2023-01-25T16:13:09;5.43;;;2.55;;
48651;SDS011;34442;52.362;-1.302;2023-01-25T16:15:35;5.82;;;2.50;;
48651;SDS011;34442;52.362;-1.302;2023-01-25T16:18:02;5.75;;;2.20;;
48651;SDS011;34442;52.362;-1.302;2023-01-25T16:20:27;5.43;;;2.30;;
48651;SDS011;34442;52.362;-1.302;2023-01-25T16:22:53;5.40;;;2.58;;
48651;SDS011;34442;52.362;-1.302;2023-01-25T16:25:18;6.15;;;2.60;;
48651;SDS011;34442;52.362;-1.302;2023-01-25T16:27:48;5.50;;;2.67;;
48651;SDS011;34442;52.362;-1.302;2023-01-25T16:30:23;4.38;;;2.10;;
48651;SDS011;34442;52.362;-1.302;2023-01-25T16:32:51;4.30;;;2.08;;
48651;SDS011;34442;52.362;-1.302;2023-01-25T16:35:18;5.05;;;2.72;;
48651;SDS011;34442;52.362;-1.302;2023-01-25T16:37:44;4.80;;;1.98;;
48651;SDS011;34442;52.362;-1.302;2023-01-25T16:40:25;4.22;;;2.17;;
48651;SDS011;34442;52.362;-1.302;2023-01-25T16:42:54;4.47;;;2.28;;
48651;SDS011;34442;52.362;-1.302;2023-01-25T16:45:20;5.03;;;2.30;;
48651;SDS011;34442;52.362;-1.302;2023-01-25T16:47:48;4.93;;;2.13;;
48651;SDS011;34442;52.362;-1.302;2023-01-25T16:50:14;4.95;;;2.22;;